sensor_id;sensor_type;location;lat;lon;timestamp;pressure;altitude;pressure_sealevel;temperature;humidity
56807;BME280;42687;42.524;12.052;2022-11-11T00:01:23;97931.56;;;11.49;90.33
56807;BME280;42687;42.524;12.052;2022-11-11T00:03:48;97936.06;;;11.47;87.68
56807;BME280;42687;42.524;12.052;2022-11-11T00:06:14;97942.97;;;11.50;89.42
56807;BME280;42687;42.524;12.052;2022-11-11T00:08:40;97942.09;;;11.49;88.21
56807;BME280;42687;42.524;12.052;2022-11-11T00:11:07;97949.94;;;11.51;90.08
56807;BME280;42687;42.524;12.052;2022-11-11T00:13:33;97939.38;;;11.51;91.09
56807;BME280;42687;42.524;12.052;2022-11-11T00:16:10;97943.09;;;11.47;89.65
56807;BME280;42687;42.524;12.052;2022-11-11T00:18:35;97943.09;;;11.47;90.73
56807;BME280;42687;42.524;12.052;2022-11-11T00:21:19;97890.88;;;11.15;89.79
56807;BME280;42687;42.524;12.052;2022-11-11T00:24:03;97942.09;;;11.49;91.69
56807;BME280;42687;42.524;12.052;2022-11-11T00:26:48;97950.97;;;11.47;88.27
56807;BME280;42687;42.524;12.052;2022-11-11T00:29:14;97945.72;;;11.47;89.10
56807;BME280;42687;42.524;12.052;2022-11-11T00:31:39;97948.50;;;11.44;87.90
56807;BME280;42687;42.524;12.052;2022-11-11T00:34:25;97936.22;;;11.43;88.56
56807;BME280;42687;42.524;12.052;2022-11-11T00:36:50;97938.94;;;11.41;89.24
56807;BME280;42687;42.524;12.052;2022-11-11T00:39:16;97881.84;;;11.00;89.28
56807;BME280;42687;42.524;12.052;2022-11-11T00:41:41;97945.25;;;11.37;88.95
56807;BME280;42687;42.524;12.052;2022-11-11T00:44:07;97943.47;;;11.38;89.85
56807;BME280;42687;42.524;12.052;2022-11-11T00:46:32;97946.91;;;11.40;92.04
56807;BME280;42687;42.524;12.052;2022-11-11T00:49:16;97939.09;;;11.38;91.38
56807;BME280;42687;42.524;12.052;2022-11-11T00:52:00;97943.53;;;11.36;90.27
56807;BME280;42687;42.524;12.052;2022-11-11T00:54:25;97945.13;;;11.40;90.62
56807;BME280;42687;42.524;12.052;2022-11-11T00:56:51;97955.59;;;11.42;89.49
56807;BME280;42687;42.524;12.052;2022-11-11T00:59:16;97954.81;;;11.40;89.67
56807;BME280;42687;42.524;12.052;2022-11-11T01:01:41;97949.53;;;11.40;90.58
56807;BME280;42687;42.524;12.052;2022-11-11T01:04:07;97957.38;;;11.41;88.59
56807;BME280;42687;42.524;12.052;2022-11-11T01:06:32;97951.97;;;11.44;89.92
56807;BME280;42687;42.524;12.052;2022-11-11T01:09:03;97951.19;;;11.42;88.57
56807;BME280;42687;42.524;12.052;2022-11-11T01:11:29;97960.84;;;11.42;88.57
56807;BME280;42687;42.524;12.052;2022-11-11T01:13:54;97932.63;;;11.25;89.35
56807;BME280;42687;42.524;12.052;2022-11-11T01:16:21;97953.91;;;11.41;90.12
56807;BME280;42687;42.524;12.052;2022-11-11T01:18:47;97960.22;;;11.37;89.09
56807;BME280;42687;42.524;12.052;2022-11-11T01:21:14;97966.47;;;11.34;90.25
56807;BME280;42687;42.524;12.052;2022-11-11T01:23:40;97966.47;;;11.34;90.63
56807;BME280;42687;42.524;12.052;2022-11-11T01:26:08;97962.88;;;11.35;91.27
56807;BME280;42687;42.524;12.052;2022-11-11T01:28:34;97958.44;;;11.37;91.46
56807;BME280;42687;42.524;12.052;2022-11-11T01:31:03;97961.00;;;11.39;89.42
56807;BME280;42687;42.524;12.052;2022-11-11T01:33:29;97961.00;;;11.39;92.53
56807;BME280;42687;42.524;12.052;2022-11-11T01:35:55;97958.34;;;11.39;90.12
56807;BME280;42687;42.524;12.052;2022-11-11T01:38:20;97957.59;;;11.37;90.28
56807;BME280;42687;42.524;12.052;2022-11-11T01:40:47;97954.06;;;11.36;90.21
56807;BME280;42687;42.524;12.052;2022-11-11T01:43:22;97951.44;;;11.36;91.83
56807;BME280;42687;42.524;12.052;2022-11-11T01:45:49;97954.75;;;11.41;91.15
56807;BME280;42687;42.524;12.052;2022-11-11T01:48:23;97952.31;;;11.37;89.85
56807;BME280;42687;42.524;12.052;2022-11-11T01:51:11;97951.94;;;11.46;89.35
56807;BME280;42687;42.524;12.052;2022-11-11T01:53:38;97953.63;;;11.47;88.66
56807;BME280;42687;42.524;12.052;2022-11-11T01:56:04;97950.06;;;11.48;89.33
56807;BME280;42687;42.524;12.052;2022-11-11T01:58:30;97951.78;;;11.49;89.07
56807;BME280;42687;42.524;12.052;2022-11-11T02:00:56;97949.06;;;11.50;90.49
56807;BME280;42687;42.524;12.052;2022-11-11T02:03:23;97957.91;;;11.49;88.98
56807;BME280;42687;42.524;12.052;2022-11-11T02:05:49;97950.06;;;11.48;89.42
56807;BME280;42687;42.524;12.052;2022-11-11T02:08:30;97944.94;;;11.45;88.96
56807;BME280;42687;42.524;12.052;2022-11-11T02:11:08;97958.19;;;11.43;89.25
56807;BME280;42687;42.524;12.052;2022-11-11T02:13:38;97955.59;;;11.42;89.87
56807;BME280;42687;42.524;12.052;2022-11-11T02:16:23;97948.75;;;11.38;92.04
56807;BME280;42687;42.524;12.052;2022-11-11T02:18:49;97883.63;;;11.00;90.55
56807;BME280;42687;42.524;12.052;2022-11-11T02:21:23;97949.69;;;11.37;90.22
56807;BME280;42687;42.524;12.052;2022-11-11T02:26:16;97952.44;;;11.33;90.17
56807;BME280;42687;42.524;12.052;2022-11-11T02:28:43;97956.91;;;11.31;90.46
56807;BME280;42687;42.524;12.052;2022-11-11T02:31:09;97955.28;;;11.29;90.50
56807;BME280;42687;42.524;12.052;2022-11-11T02:33:34;97963.25;;;11.27;90.60
56807;BME280;42687;42.524;12.052;2022-11-11T02:36:00;97941.81;;;11.14;90.83
56807;BME280;42687;42.524;12.052;2022-11-11T02:38:26;97969.53;;;11.23;91.29
56807;BME280;42687;42.524;12.052;2022-11-11T02:40:53;97957.47;;;11.17;91.15
56807;BME280;42687;42.524;12.052;2022-11-11T02:43:37;97963.66;;;11.16;92.68
56807;BME280;42687;42.524;12.052;2022-11-11T02:46:03;97959.44;;;11.12;91.26
56807;BME280;42687;42.524;12.052;2022-11-11T02:48:29;97959.44;;;11.12;91.65
56807;BME280;42687;42.524;12.052;2022-11-11T02:50:55;97961.31;;;11.10;92.12
56807;BME280;42687;42.524;12.052;2022-11-11T02:53:21;97949.81;;;11.11;91.77
56807;BME280;42687;42.524;12.052;2022-11-11T02:55:46;97956.81;;;11.12;90.52
56807;BME280;42687;42.524;12.052;2022-11-11T02:58:12;97961.09;;;11.15;91.28
56807;BME280;42687;42.524;12.052;2022-11-11T03:00:39;97955.81;;;11.15;91.53
56807;BME280;42687;42.524;12.052;2022-11-11T03:03:04;97968.09;;;11.16;91.09
56807;BME280;42687;42.524;12.052;2022-11-11T03:05:30;97970.84;;;11.13;91.27
56807;BME280;42687;42.524;12.052;2022-11-11T03:07:56;97963.78;;;11.13;90.77
56807;BME280;42687;42.524;12.052;2022-11-11T03:10:21;97965.38;;;11.17;91.68
56807;BME280;42687;42.524;12.052;2022-11-11T03:12:47;97974.88;;;11.22;89.84
56807;BME280;42687;42.524;12.052;2022-11-11T03:15:13;97968.63;;;11.24;90.28
56807;BME280;42687;42.524;12.052;2022-11-11T03:17:38;97968.44;;;11.29;92.59
56807;BME280;42687;42.524;12.052;2022-11-11T03:20:08;97964.94;;;11.28;90.31
56807;BME280;42687;42.524;12.052;2022-11-11T03:22:59;97971.84;;;11.31;91.77
56807;BME280;42687;42.524;12.052;2022-11-11T03:25:24;97965.53;;;11.35;91.62
56807;BME280;42687;42.524;12.052;2022-11-11T03:28:12;97976.06;;;11.35;89.85
56807;BME280;42687;42.524;12.052;2022-11-11T03:30:39;97972.44;;;11.38;88.94
56807;BME280;42687;42.524;12.052;2022-11-11T03:33:05;97971.47;;;11.40;89.72
56807;BME280;42687;42.524;12.052;2022-11-11T03:35:31;97972.25;;;11.42;90.55
56807;BME280;42687;42.524;12.052;2022-11-11T03:37:57;97978.59;;;11.38;90.42
56807;BME280;42687;42.524;12.052;2022-11-11T03:40:48;97979.63;;;11.34;89.83
56807;BME280;42687;42.524;12.052;2022-11-11T03:43:15;97981.41;;;11.33;90.61
56807;BME280;42687;42.524;12.052;2022-11-11T03:45:41;97977.91;;;11.33;89.65
56807;BME280;42687;42.524;12.052;2022-11-11T03:48:07;97976.88;;;11.37;91.86
56807;BME280;42687;42.524;12.052;2022-11-11T03:50:33;97973.38;;;11.37;90.11
56807;BME280;42687;42.524;12.052;2022-11-11T03:52:58;97970.78;;;11.35;91.16
56807;BME280;42687;42.524;12.052;2022-11-11T03:55:24;97971.75;;;11.34;89.22
56807;BME280;42687;42.524;12.052;2022-11-11T03:57:50;97963.84;;;11.34;88.75
56807;BME280;42687;42.524;12.052;2022-11-11T04:00:19;97964.53;;;11.38;88.72
56807;BME280;42687;42.524;12.052;2022-11-11T04:02:45;97974.03;;;11.42;92.03
56807;BME280;42687;42.524;12.052;2022-11-11T04:05:29;97896.94;;;10.97;90.31
56807;BME280;42687;42.524;12.052;2022-11-11T04:08:14;97974.16;;;11.39;90.81
56807;BME280;42687;42.524;12.052;2022-11-11T04:10:59;97970.03;;;11.33;92.48
56807;BME280;42687;42.524;12.052;2022-11-11T04:13:26;97977.19;;;11.29;91.72
56807;BME280;42687;42.524;12.052;2022-11-11T04:16:11;97898.59;;;10.77;91.59
56807;BME280;42687;42.524;12.052;2022-11-11T04:18:36;97979.44;;;11.16;91.20
56807;BME280;42687;42.524;12.052;2022-11-11T04:21:21;97898.75;;;10.73;91.45
56807;BME280;42687;42.524;12.052;2022-11-11T04:24:05;97970.84;;;11.13;91.14
56807;BME280;42687;42.524;12.052;2022-11-11T04:26:55;97974.41;;;11.12;91.94
56807;BME280;42687;42.524;12.052;2022-11-11T04:29:21;97975.25;;;11.12;91.05
56807;BME280;42687;42.524;12.052;2022-11-11T04:32:02;97969.25;;;11.09;90.47
56807;BME280;42687;42.524;12.052;2022-11-11T04:34:47;97976.34;;;11.07;91.54
56807;BME280;42687;42.524;12.052;2022-11-11T04:37:14;97973.91;;;11.02;91.27
56807;BME280;42687;42.524;12.052;2022-11-11T04:39:40;97976.66;;;10.99;90.95
56807;BME280;42687;42.524;12.052;2022-11-11T04:42:24;97973.25;;;10.97;90.84
56807;BME280;42687;42.524;12.052;2022-11-11T04:44:50;97977.53;;;10.99;90.62
56807;BME280;42687;42.524;12.052;2022-11-11T04:47:34;97984.41;;;11.02;92.54
56807;BME280;42687;42.524;12.052;2022-11-11T04:49:59;97979.13;;;11.04;92.21
56807;BME280;42687;42.524;12.052;2022-11-11T04:52:25;97981.69;;;11.05;90.79
56807;BME280;42687;42.524;12.052;2022-11-11T04:54:51;97976.53;;;11.02;92.29
56807;BME280;42687;42.524;12.052;2022-11-11T04:57:41;97992.38;;;11.00;94.00
56807;BME280;42687;42.524;12.052;2022-11-11T05:00:08;97985.47;;;10.98;90.89
56807;BME280;42687;42.524;12.052;2022-11-11T05:02:33;97978.56;;;10.95;92.32
56807;BME280;42687;42.524;12.052;2022-11-11T05:05:17;97989.16;;;10.94;93.49
56807;BME280;42687;42.524;12.052;2022-11-11T05:07:43;97987.56;;;10.90;92.65
56807;BME280;42687;42.524;12.052;2022-11-11T05:10:27;97991.00;;;10.92;94.48
56807;BME280;42687;42.524;12.052;2022-11-11T05:12:52;97984.16;;;10.88;92.76
56807;BME280;42687;42.524;12.052;2022-11-11T05:15:18;97996.25;;;10.92;94.33
56807;BME280;42687;42.524;12.052;2022-11-11T05:18:02;97988.47;;;10.89;91.97
56807;BME280;42687;42.524;12.052;2022-11-11T05:20:49;97992.03;;;10.88;92.95
56807;BME280;42687;42.524;12.052;2022-11-11T05:23:33;97989.44;;;10.86;92.35
56807;BME280;42687;42.524;12.052;2022-11-11T05:26:17;97993.94;;;10.84;92.21
56807;BME280;42687;42.524;12.052;2022-11-11T05:28:42;97995.66;;;10.85;94.87
56807;BME280;42687;42.524;12.052;2022-11-11T05:31:08;98001.00;;;10.82;95.16
56807;BME280;42687;42.524;12.052;2022-11-11T05:33:33;97996.72;;;10.79;93.08
56807;BME280;42687;42.524;12.052;2022-11-11T05:35:59;97999.50;;;10.76;91.79
56807;BME280;42687;42.524;12.052;2022-11-11T05:38:25;97995.94;;;10.77;92.12
56807;BME280;42687;42.524;12.052;2022-11-11T05:40:50;98004.63;;;10.79;92.62
56807;BME280;42687;42.524;12.052;2022-11-11T05:43:16;98005.50;;;10.80;95.56
56807;BME280;42687;42.524;12.052;2022-11-11T05:45:42;98008.19;;;10.78;93.86
56807;BME280;42687;42.524;12.052;2022-11-11T05:48:07;98017.69;;;10.82;95.54
56807;BME280;42687;42.524;12.052;2022-11-11T05:50:33;98007.84;;;10.88;95.47
56807;BME280;42687;42.524;12.052;2022-11-11T05:53:01;98016.63;;;10.87;92.51
56807;BME280;42687;42.524;12.052;2022-11-11T05:55:26;98013.03;;;10.89;93.08
56807;BME280;42687;42.524;12.052;2022-11-11T05:57:52;98015.59;;;10.91;94.74
56807;BME280;42687;42.524;12.052;2022-11-11T06:00:17;98016.50;;;10.90;92.88
56807;BME280;42687;42.524;12.052;2022-11-11T06:02:43;98021.00;;;10.88;93.37
56807;BME280;42687;42.524;12.052;2022-11-11T06:05:09;98014.00;;;10.87;92.15
56807;BME280;42687;42.524;12.052;2022-11-11T06:07:38;98021.00;;;10.88;94.45
56807;BME280;42687;42.524;12.052;2022-11-11T06:10:04;98027.91;;;10.90;94.06
56807;BME280;42687;42.524;12.052;2022-11-11T06:12:49;98028.00;;;10.87;93.32
56807;BME280;42687;42.524;12.052;2022-11-11T06:15:30;98025.44;;;10.85;92.36
56807;BME280;42687;42.524;12.052;2022-11-11T06:17:56;98036.94;;;10.83;92.67
56807;BME280;42687;42.524;12.052;2022-11-11T06:20:21;98037.78;;;10.83;93.68
56807;BME280;42687;42.524;12.052;2022-11-11T06:22:47;98036.09;;;10.82;94.19
56807;BME280;42687;42.524;12.052;2022-11-11T06:25:22;98043.94;;;10.84;93.61
56807;BME280;42687;42.524;12.052;2022-11-11T06:28:06;98038.59;;;10.85;93.74
56807;BME280;42687;42.524;12.052;2022-11-11T06:30:32;98029.25;;;10.78;94.06
56807;BME280;42687;42.524;12.052;2022-11-11T06:32:57;98048.91;;;10.92;95.89
56807;BME280;42687;42.524;12.052;2022-11-11T06:35:23;98057.47;;;10.97;94.90
56807;BME280;42687;42.524;12.052;2022-11-11T06:37:48;98046.75;;;11.01;94.69
56807;BME280;42687;42.524;12.052;2022-11-11T06:40:14;98057.06;;;11.08;95.56
56807;BME280;42687;42.524;12.052;2022-11-11T06:42:39;98061.22;;;11.13;92.91
56807;BME280;42687;42.524;12.052;2022-11-11T06:45:05;98074.69;;;11.28;95.10
56807;BME280;42687;42.524;12.052;2022-11-11T06:47:31;98077.34;;;11.48;93.52
56807;BME280;42687;42.524;12.052;2022-11-11T06:49:56;98079.38;;;11.64;94.34
56807;BME280;42687;42.524;12.052;2022-11-11T06:52:22;98082.59;;;11.71;95.68
56807;BME280;42687;42.524;12.052;2022-11-11T06:54:47;98091.91;;;11.79;95.78
56807;BME280;42687;42.524;12.052;2022-11-11T06:57:13;98087.03;;;11.91;95.64
56807;BME280;42687;42.524;12.052;2022-11-11T06:59:38;98080.16;;;12.09;95.54
56807;BME280;42687;42.524;12.052;2022-11-11T07:02:04;98076.91;;;12.23;95.73
56807;BME280;42687;42.524;12.052;2022-11-11T07:04:29;98072.75;;;12.38;95.74
56807;BME280;42687;42.524;12.052;2022-11-11T07:06:55;98078.91;;;12.57;94.43
56807;BME280;42687;42.524;12.052;2022-11-11T07:09:20;98075.00;;;12.85;95.97
56807;BME280;42687;42.524;12.052;2022-11-11T07:11:47;98082.22;;;13.20;95.20
56807;BME280;42687;42.524;12.052;2022-11-11T07:14:13;98088.53;;;13.54;95.61
56807;BME280;42687;42.524;12.052;2022-11-11T07:16:38;98085.97;;;13.87;95.72
56807;BME280;42687;42.524;12.052;2022-11-11T07:19:04;98084.56;;;14.15;95.79
56807;BME280;42687;42.524;12.052;2022-11-11T07:21:29;98094.72;;;14.40;94.47
56807;BME280;42687;42.524;12.052;2022-11-11T07:23:55;98092.84;;;14.60;95.90
56807;BME280;42687;42.524;12.052;2022-11-11T07:26:20;98096.31;;;14.78;95.80
56807;BME280;42687;42.524;12.052;2022-11-11T07:28:46;98101.66;;;14.94;95.94
56807;BME280;42687;42.524;12.052;2022-11-11T07:31:14;98092.88;;;15.09;95.54
56807;BME280;42687;42.524;12.052;2022-11-11T07:33:40;98104.56;;;15.21;95.61
56807;BME280;42687;42.524;12.052;2022-11-11T07:36:06;98114.41;;;15.35;95.82
56807;BME280;42687;42.524;12.052;2022-11-11T07:38:31;98106.72;;;15.46;91.75
56807;BME280;42687;42.524;12.052;2022-11-11T07:40:57;98111.13;;;15.62;95.84
56807;BME280;42687;42.524;12.052;2022-11-11T07:43:22;98112.75;;;15.80;95.59
56807;BME280;42687;42.524;12.052;2022-11-11T07:45:49;98110.91;;;15.97;95.36
56807;BME280;42687;42.524;12.052;2022-11-11T07:48:15;98113.28;;;16.01;95.63
56807;BME280;42687;42.524;12.052;2022-11-11T07:50:40;98127.63;;;16.13;96.30
56807;BME280;42687;42.524;12.052;2022-11-11T07:53:06;98139.41;;;16.24;96.27
56807;BME280;42687;42.524;12.052;2022-11-11T07:55:31;98123.63;;;16.37;95.46
56807;BME280;42687;42.524;12.052;2022-11-11T07:57:57;98136.06;;;16.50;95.44
56807;BME280;42687;42.524;12.052;2022-11-11T08:00:23;98130.09;;;16.61;94.33
56807;BME280;42687;42.524;12.052;2022-11-11T08:02:48;98128.69;;;16.70;94.21
56807;BME280;42687;42.524;12.052;2022-11-11T08:05:14;98123.06;;;16.75;94.13
56807;BME280;42687;42.524;12.052;2022-11-11T08:07:40;98124.88;;;16.89;92.83
56807;BME280;42687;42.524;12.052;2022-11-11T08:10:07;98133.56;;;16.92;93.11
56807;BME280;42687;42.524;12.052;2022-11-11T08:12:32;98128.41;;;17.04;86.35
56807;BME280;42687;42.524;12.052;2022-11-11T08:15:16;98116.47;;;17.11;90.66
56807;BME280;42687;42.524;12.052;2022-11-11T08:17:42;98129.94;;;17.08;90.82
56807;BME280;42687;42.524;12.052;2022-11-11T08:20:08;98131.34;;;17.13;91.03
56807;BME280;42687;42.524;12.052;2022-11-11T08:22:37;98127.91;;;17.26;90.22
56807;BME280;42687;42.524;12.052;2022-11-11T08:25:04;98117.75;;;17.32;89.65
56807;BME280;42687;42.524;12.052;2022-11-11T08:27:29;98123.03;;;17.47;90.06
56807;BME280;42687;42.524;12.052;2022-11-11T08:29:55;98120.41;;;17.60;89.36
56807;BME280;42687;42.524;12.052;2022-11-11T08:32:20;98129.03;;;17.63;86.94
56807;BME280;42687;42.524;12.052;2022-11-11T08:34:46;98123.50;;;17.66;88.47
56807;BME280;42687;42.524;12.052;2022-11-11T08:37:11;98131.25;;;17.84;88.26
56807;BME280;42687;42.524;12.052;2022-11-11T08:39:37;98126.53;;;18.02;87.53
56807;BME280;42687;42.524;12.052;2022-11-11T08:42:03;98127.78;;;18.24;86.83
56807;BME280;42687;42.524;12.052;2022-11-11T08:44:28;98129.50;;;18.38;85.84
56807;BME280;42687;42.524;12.052;2022-11-11T08:46:54;98123.00;;;18.42;85.71
56807;BME280;42687;42.524;12.052;2022-11-11T08:49:19;98126.09;;;18.48;85.44
56807;BME280;42687;42.524;12.052;2022-11-11T08:51:45;98139.94;;;18.54;84.91
56807;BME280;42687;42.524;12.052;2022-11-11T08:54:10;98135.69;;;18.64;84.70
56807;BME280;42687;42.524;12.052;2022-11-11T08:56:36;98123.66;;;18.58;83.50
56807;BME280;42687;42.524;12.052;2022-11-11T08:59:01;98141.13;;;18.49;83.80
56807;BME280;42687;42.524;12.052;2022-11-11T09:01:27;98144.09;;;18.45;76.90
56807;BME280;42687;42.524;12.052;2022-11-11T09:03:53;98121.28;;;18.28;83.40
56807;BME280;42687;42.524;12.052;2022-11-11T09:06:18;98151.47;;;18.54;82.28
56807;BME280;42687;42.524;12.052;2022-11-11T09:08:44;98145.38;;;18.52;80.33
56807;BME280;42687;42.524;12.052;2022-11-11T09:11:09;98147.91;;;18.41;75.92
56807;BME280;42687;42.524;12.052;2022-11-11T09:13:35;98147.41;;;18.36;81.51
56807;BME280;42687;42.524;12.052;2022-11-11T09:16:01;98157.31;;;18.46;81.40
56807;BME280;42687;42.524;12.052;2022-11-11T09:18:26;98152.63;;;18.63;79.58
56807;BME280;42687;42.524;12.052;2022-11-11T09:20:52;98160.63;;;18.63;80.65
56807;BME280;42687;42.524;12.052;2022-11-11T09:23:17;98149.31;;;18.72;79.85
56807;BME280;42687;42.524;12.052;2022-11-11T09:25:43;98146.44;;;18.75;78.54
56807;BME280;42687;42.524;12.052;2022-11-11T09:28:09;98146.66;;;18.72;79.26
56807;BME280;42687;42.524;12.052;2022-11-11T09:30:35;98159.69;;;18.90;78.78
56807;BME280;42687;42.524;12.052;2022-11-11T09:33:03;98148.84;;;18.93;77.85
56807;BME280;42687;42.524;12.052;2022-11-11T09:35:29;98164.91;;;19.04;77.17
56807;BME280;42687;42.524;12.052;2022-11-11T09:37:55;98170.66;;;19.11;77.05
56807;BME280;42687;42.524;12.052;2022-11-11T09:40:22;98173.84;;;19.29;75.88
56807;BME280;42687;42.524;12.052;2022-11-11T09:42:52;98175.44;;;19.19;75.96
56807;BME280;42687;42.524;12.052;2022-11-11T09:50:27;98171.19;;;19.03;70.83
56807;BME280;42687;42.524;12.052;2022-11-11T09:52:59;98170.88;;;19.08;75.67
56807;BME280;42687;42.524;12.052;2022-11-11T09:55:45;98166.72;;;19.16;75.15
56807;BME280;42687;42.524;12.052;2022-11-11T09:58:21;98176.81;;;19.24;73.19
56807;BME280;42687;42.524;12.052;2022-11-11T10:00:52;98175.88;;;19.25;72.74
56807;BME280;42687;42.524;12.052;2022-11-11T10:03:21;98178.34;;;19.28;73.83
56807;BME280;42687;42.524;12.052;2022-11-11T10:06:03;98170.88;;;19.21;72.21
56807;BME280;42687;42.524;12.052;2022-11-11T10:08:33;98182.91;;;19.26;74.04
56807;BME280;42687;42.524;12.052;2022-11-11T10:10:59;98180.34;;;19.38;73.29
56807;BME280;42687;42.524;12.052;2022-11-11T10:13:27;98164.00;;;19.42;69.00
56807;BME280;42687;42.524;12.052;2022-11-11T10:21:14;98148.66;;;19.33;70.92
56807;BME280;42687;42.524;12.052;2022-11-11T10:23:39;98147.91;;;19.31;71.18
56807;BME280;42687;42.524;12.052;2022-11-11T10:26:13;98151.09;;;19.36;71.72
56807;BME280;42687;42.524;12.052;2022-11-11T10:28:41;98132.78;;;19.56;71.63
56807;BME280;42687;42.524;12.052;2022-11-11T10:31:11;98142.34;;;19.71;70.62
56807;BME280;42687;42.524;12.052;2022-11-11T10:33:45;98127.69;;;19.77;68.29
56807;BME280;42687;42.524;12.052;2022-11-11T10:36:17;98122.91;;;19.82;64.88
56807;BME280;42687;42.524;12.052;2022-11-11T10:38:46;98130.31;;;19.65;67.63
56807;BME280;42687;42.524;12.052;2022-11-11T10:41:15;98067.88;;;19.31;68.44
56807;BME280;42687;42.524;12.052;2022-11-11T10:43:44;98121.72;;;19.73;68.35
56807;BME280;42687;42.524;12.052;2022-11-11T10:46:18;98122.16;;;20.04;63.68
56807;BME280;42687;42.524;12.052;2022-11-11T10:51:21;98122.94;;;20.29;66.20
56807;BME280;42687;42.524;12.052;2022-11-11T10:53:59;98111.44;;;20.40;63.09
56807;BME280;42687;42.524;12.052;2022-11-11T10:59:00;98037.03;;;19.88;65.95
56807;BME280;42687;42.524;12.052;2022-11-11T11:01:31;98108.75;;;20.40;64.75
56807;BME280;42687;42.524;12.052;2022-11-11T11:04:00;98121.59;;;20.23;66.18
56807;BME280;42687;42.524;12.052;2022-11-11T11:06:30;98111.97;;;19.85;63.67
56807;BME280;42687;42.524;12.052;2022-11-11T11:09:02;98098.50;;;19.38;62.45
56807;BME280;42687;42.524;12.052;2022-11-11T11:11:38;98096.34;;;19.06;67.57
56807;BME280;42687;42.524;12.052;2022-11-11T11:14:10;98094.00;;;19.02;67.83
56807;BME280;42687;42.524;12.052;2022-11-11T11:16:37;98105.31;;;18.92;67.71
56807;BME280;42687;42.524;12.052;2022-11-11T11:21:55;98106.28;;;18.65;67.23
56807;BME280;42687;42.524;12.052;2022-11-11T11:24:28;98106.59;;;18.61;68.76
56807;BME280;42687;42.524;12.052;2022-11-11T11:26:54;98092.75;;;18.56;63.05
56807;BME280;42687;42.524;12.052;2022-11-11T11:29:39;98095.28;;;18.44;67.40
56807;BME280;42687;42.524;12.052;2022-11-11T11:32:13;98103.78;;;18.11;68.59
56807;BME280;42687;42.524;12.052;2022-11-11T11:34:49;98102.06;;;17.70;68.70
56807;BME280;42687;42.524;12.052;2022-11-11T11:37:16;98097.91;;;17.24;70.10
56807;BME280;42687;42.524;12.052;2022-11-11T11:39:42;98109.06;;;16.87;70.22
56807;BME280;42687;42.524;12.052;2022-11-11T11:42:07;98106.19;;;16.61;71.11
56807;BME280;42687;42.524;12.052;2022-11-11T11:44:35;98086.53;;;16.35;71.29
56807;BME280;42687;42.524;12.052;2022-11-11T11:47:14;98110.22;;;16.24;70.10
56807;BME280;42687;42.524;12.052;2022-11-11T11:52:22;98088.56;;;16.01;70.98
56807;BME280;42687;42.524;12.052;2022-11-11T11:57:24;98094.66;;;15.87;71.49
56807;BME280;42687;42.524;12.052;2022-11-11T11:59:57;98082.63;;;15.81;70.76
56807;BME280;42687;42.524;12.052;2022-11-11T12:05:22;98086.03;;;15.67;70.59
56807;BME280;42687;42.524;12.052;2022-11-11T12:10:43;98087.00;;;15.66;70.77
56807;BME280;42687;42.524;12.052;2022-11-11T12:13:16;98089.75;;;15.65;70.55
56807;BME280;42687;42.524;12.052;2022-11-11T12:15:56;98088.97;;;15.63;71.08
56807;BME280;42687;42.524;12.052;2022-11-11T12:20:57;98080.66;;;15.69;70.53
56807;BME280;42687;42.524;12.052;2022-11-11T12:36:14;98094.63;;;15.57;70.06
56807;BME280;42687;42.524;12.052;2022-11-11T12:41:14;98078.97;;;15.52;70.11
56807;BME280;42687;42.524;12.052;2022-11-11T12:46:32;98069.31;;;15.51;70.09
56807;BME280;42687;42.524;12.052;2022-11-11T12:51:35;98063.47;;;15.60;69.65
56807;BME280;42687;42.524;12.052;2022-11-11T12:59:22;98056.97;;;15.66;69.61
56807;BME280;42687;42.524;12.052;2022-11-11T13:12:43;98042.50;;;15.41;69.99
56807;BME280;42687;42.524;12.052;2022-11-11T13:15:20;98042.75;;;15.37;70.08
56807;BME280;42687;42.524;12.052;2022-11-11T13:17:46;98045.41;;;15.37;70.29
56807;BME280;42687;42.524;12.052;2022-11-11T13:20:31;98056.78;;;15.39;69.57
56807;BME280;42687;42.524;12.052;2022-11-11T13:22:59;98046.25;;;15.37;70.15
56807;BME280;42687;42.524;12.052;2022-11-11T13:25:26;98042.84;;;15.35;70.17
56807;BME280;42687;42.524;12.052;2022-11-11T13:28:01;98040.28;;;15.33;70.27
56807;BME280;42687;42.524;12.052;2022-11-11T13:33:10;98048.72;;;15.40;70.12
56807;BME280;42687;42.524;12.052;2022-11-11T13:38:04;98043.09;;;15.46;69.31
56807;BME280;42687;42.524;12.052;2022-11-11T13:40:35;98043.94;;;15.47;69.75
56807;BME280;42687;42.524;12.052;2022-11-11T13:43:02;98042.13;;;15.47;69.45
56807;BME280;42687;42.524;12.052;2022-11-11T13:45:35;98040.44;;;15.46;69.03
56807;BME280;42687;42.524;12.052;2022-11-11T13:48:02;98045.06;;;15.43;67.61
56807;BME280;42687;42.524;12.052;2022-11-11T13:53:11;98043.69;;;15.35;68.97
56807;BME280;42687;42.524;12.052;2022-11-11T13:55:40;98043.03;;;15.32;69.99
56807;BME280;42687;42.524;12.052;2022-11-11T13:58:07;98042.16;;;15.31;69.78
56807;BME280;42687;42.524;12.052;2022-11-11T14:00:45;98038.75;;;15.29;69.93
56807;BME280;42687;42.524;12.052;2022-11-11T14:05:36;97970.47;;;14.87;69.54
56807;BME280;42687;42.524;12.052;2022-11-11T14:08:01;98040.53;;;15.29;69.63
56807;BME280;42687;42.524;12.052;2022-11-11T14:12:53;98012.19;;;15.15;69.81
56807;BME280;42687;42.524;12.052;2022-11-11T14:18:01;98030.88;;;15.28;69.46
56807;BME280;42687;42.524;12.052;2022-11-11T14:20:39;98039.78;;;15.27;69.67
56807;BME280;42687;42.524;12.052;2022-11-11T14:26:25;98028.16;;;15.29;69.69
56807;BME280;42687;42.524;12.052;2022-11-11T14:28:31;98027.03;;;15.33;68.67
56807;BME280;42687;42.524;12.052;2022-11-11T14:38:49;98028.06;;;15.15;69.92